sensor_id;sensor_type;location;lat;lon;timestamp;temperature;humidity
43015;DHT22;28637;50.554;7.032;2022-12-20T00:00:15;10.50;99.90
43015;DHT22;28637;50.554;7.032;2022-12-20T00:05:15;10.60;99.90
43015;DHT22;28637;50.554;7.032;2022-12-20T00:10:16;10.60;99.90
43015;DHT22;28637;50.554;7.032;2022-12-20T00:15:17;10.60;99.90
43015;DHT22;28637;50.554;7.032;2022-12-20T00:20:17;10.50;99.90
43015;DHT22;28637;50.554;7.032;2022-12-20T00:25:18;10.50;99.90
43015;DHT22;28637;50.554;7.032;2022-12-20T00:30:20;10.40;99.90
43015;DHT22;28637;50.554;7.032;2022-12-20T00:35:20;10.40;99.90
43015;DHT22;28637;50.554;7.032;2022-12-20T00:40:21;10.30;99.90
43015;DHT22;28637;50.554;7.032;2022-12-20T00:45:21;10.30;99.90
43015;DHT22;28637;50.554;7.032;2022-12-20T00:50:22;10.30;99.90
43015;DHT22;28637;50.554;7.032;2022-12-20T00:55:23;10.40;99.90
43015;DHT22;28637;50.554;7.032;2022-12-20T01:00:23;10.40;99.90
43015;DHT22;28637;50.554;7.032;2022-12-20T01:05:24;10.40;99.90
43015;DHT22;28637;50.554;7.032;2022-12-20T01:10:25;10.40;99.90
43015;DHT22;28637;50.554;7.032;2022-12-20T01:15:26;10.30;99.90
43015;DHT22;28637;50.554;7.032;2022-12-20T01:20:28;10.40;99.90
43015;DHT22;28637;50.554;7.032;2022-12-20T01:25:28;10.40;99.90
43015;DHT22;28637;50.554;7.032;2022-12-20T01:30:29;10.40;99.90
43015;DHT22;28637;50.554;7.032;2022-12-20T01:35:30;10.40;99.90
43015;DHT22;28637;50.554;7.032;2022-12-20T01:40:30;10.40;99.90
43015;DHT22;28637;50.554;7.032;2022-12-20T01:45:31;10.40;99.90
43015;DHT22;28637;50.554;7.032;2022-12-20T01:50:33;10.40;99.90
43015;DHT22;28637;50.554;7.032;2022-12-20T01:55:33;10.40;99.90
43015;DHT22;28637;50.554;7.032;2022-12-20T02:00:35;10.40;99.90
43015;DHT22;28637;50.554;7.032;2022-12-20T02:05:39;10.40;99.90
43015;DHT22;28637;50.554;7.032;2022-12-20T02:16:08;10.40;99.90
43015;DHT22;28637;50.554;7.032;2022-12-20T02:31:28;10.40;99.90
43015;DHT22;28637;50.554;7.032;2022-12-20T02:36:30;10.40;99.90
43015;DHT22;28637;50.554;7.032;2022-12-20T02:41:43;10.40;99.90
43015;DHT22;28637;50.554;7.032;2022-12-20T02:46:45;10.50;99.90
43015;DHT22;28637;50.554;7.032;2022-12-20T02:51:49;10.40;99.90
43015;DHT22;28637;50.554;7.032;2022-12-20T02:56:59;10.50;99.90
43015;DHT22;28637;50.554;7.032;2022-12-20T03:02:01;10.50;99.90
43015;DHT22;28637;50.554;7.032;2022-12-20T03:07:08;10.50;99.90
43015;DHT22;28637;50.554;7.032;2022-12-20T03:12:10;10.50;99.90
43015;DHT22;28637;50.554;7.032;2022-12-20T03:17:11;10.50;99.90
43015;DHT22;28637;50.554;7.032;2022-12-20T03:22:12;10.60;99.90
43015;DHT22;28637;50.554;7.032;2022-12-20T03:27:12;10.50;99.90
43015;DHT22;28637;50.554;7.032;2022-12-20T03:32:13;10.50;99.90
43015;DHT22;28637;50.554;7.032;2022-12-20T03:37:14;10.50;99.90
43015;DHT22;28637;50.554;7.032;2022-12-20T03:42:15;10.60;99.90
43015;DHT22;28637;50.554;7.032;2022-12-20T03:47:16;10.60;99.90
43015;DHT22;28637;50.554;7.032;2022-12-20T03:52:17;10.70;99.90
43015;DHT22;28637;50.554;7.032;2022-12-20T03:57:18;10.70;99.90
43015;DHT22;28637;50.554;7.032;2022-12-20T04:02:19;10.70;99.90
43015;DHT22;28637;50.554;7.032;2022-12-20T04:07:20;10.70;99.90
43015;DHT22;28637;50.554;7.032;2022-12-20T04:12:21;10.60;99.90
43015;DHT22;28637;50.554;7.032;2022-12-20T04:17:22;10.60;99.90
43015;DHT22;28637;50.554;7.032;2022-12-20T04:22:22;10.50;99.90
43015;DHT22;28637;50.554;7.032;2022-12-20T04:27:23;10.50;99.90
43015;DHT22;28637;50.554;7.032;2022-12-20T04:32:23;10.50;99.90
43015;DHT22;28637;50.554;7.032;2022-12-20T04:37:24;10.50;99.90
43015;DHT22;28637;50.554;7.032;2022-12-20T04:42:25;10.50;99.90
43015;DHT22;28637;50.554;7.032;2022-12-20T04:47:25;10.50;99.90
43015;DHT22;28637;50.554;7.032;2022-12-20T04:52:26;10.50;99.90
43015;DHT22;28637;50.554;7.032;2022-12-20T04:57:46;10.50;99.90
43015;DHT22;28637;50.554;7.032;2022-12-20T05:02:46;10.50;99.90
43015;DHT22;28637;50.554;7.032;2022-12-20T05:07:47;10.50;99.90
43015;DHT22;28637;50.554;7.032;2022-12-20T05:12:48;10.50;99.90
43015;DHT22;28637;50.554;7.032;2022-12-20T05:17:48;10.50;99.90
43015;DHT22;28637;50.554;7.032;2022-12-20T05:22:49;10.50;99.90
43015;DHT22;28637;50.554;7.032;2022-12-20T05:28:08;10.50;99.90
43015;DHT22;28637;50.554;7.032;2022-12-20T05:33:09;10.60;99.90
43015;DHT22;28637;50.554;7.032;2022-12-20T05:38:09;10.60;99.90
43015;DHT22;28637;50.554;7.032;2022-12-20T05:43:10;10.70;99.90
43015;DHT22;28637;50.554;7.032;2022-12-20T05:48:11;10.70;99.90
43015;DHT22;28637;50.554;7.032;2022-12-20T05:53:12;10.60;99.90
43015;DHT22;28637;50.554;7.032;2022-12-20T05:58:14;10.70;99.90
43015;DHT22;28637;50.554;7.032;2022-12-20T06:03:15;10.70;99.90
43015;DHT22;28637;50.554;7.032;2022-12-20T06:08:16;10.70;99.90
43015;DHT22;28637;50.554;7.032;2022-12-20T06:13:17;10.70;99.90
43015;DHT22;28637;50.554;7.032;2022-12-20T06:18:18;10.70;99.90
43015;DHT22;28637;50.554;7.032;2022-12-20T06:23:18;10.70;99.90
43015;DHT22;28637;50.554;7.032;2022-12-20T06:28:19;10.80;99.90
43015;DHT22;28637;50.554;7.032;2022-12-20T06:33:21;10.80;99.90
43015;DHT22;28637;50.554;7.032;2022-12-20T06:38:22;10.90;99.90
43015;DHT22;28637;50.554;7.032;2022-12-20T06:43:22;10.80;99.90
43015;DHT22;28637;50.554;7.032;2022-12-20T06:48:23;10.70;99.90
43015;DHT22;28637;50.554;7.032;2022-12-20T06:53:24;10.70;99.90
43015;DHT22;28637;50.554;7.032;2022-12-20T06:58:24;10.70;99.90
43015;DHT22;28637;50.554;7.032;2022-12-20T07:03:25;10.80;99.90
43015;DHT22;28637;50.554;7.032;2022-12-20T07:08:26;10.80;99.90
43015;DHT22;28637;50.554;7.032;2022-12-20T07:13:26;10.90;99.90
43015;DHT22;28637;50.554;7.032;2022-12-20T07:18:27;10.80;99.90
43015;DHT22;28637;50.554;7.032;2022-12-20T07:23:28;10.80;99.90
43015;DHT22;28637;50.554;7.032;2022-12-20T07:28:28;10.80;99.90
43015;DHT22;28637;50.554;7.032;2022-12-20T07:33:30;10.80;99.90
43015;DHT22;28637;50.554;7.032;2022-12-20T07:38:30;10.90;99.90
43015;DHT22;28637;50.554;7.032;2022-12-20T07:43:31;10.80;99.90
43015;DHT22;28637;50.554;7.032;2022-12-20T07:48:32;10.90;99.90
43015;DHT22;28637;50.554;7.032;2022-12-20T07:53:36;10.80;99.90
43015;DHT22;28637;50.554;7.032;2022-12-20T07:58:39;10.90;99.90
43015;DHT22;28637;50.554;7.032;2022-12-20T08:03:46;10.90;99.90
43015;DHT22;28637;50.554;7.032;2022-12-20T08:08:52;11.00;99.90
43015;DHT22;28637;50.554;7.032;2022-12-20T08:13:54;11.00;99.90
43015;DHT22;28637;50.554;7.032;2022-12-20T08:18:54;11.00;99.90
43015;DHT22;28637;50.554;7.032;2022-12-20T08:23:55;11.10;99.90
43015;DHT22;28637;50.554;7.032;2022-12-20T08:28:56;11.10;99.90
43015;DHT22;28637;50.554;7.032;2022-12-20T08:33:56;11.10;99.90
43015;DHT22;28637;50.554;7.032;2022-12-20T08:38:57;11.10;99.90
43015;DHT22;28637;50.554;7.032;2022-12-20T08:43:58;11.20;99.90
43015;DHT22;28637;50.554;7.032;2022-12-20T08:48:58;11.10;99.90
43015;DHT22;28637;50.554;7.032;2022-12-20T08:53:59;11.20;99.90
43015;DHT22;28637;50.554;7.032;2022-12-20T08:59:01;11.30;99.90
43015;DHT22;28637;50.554;7.032;2022-12-20T09:04:03;11.40;99.90
43015;DHT22;28637;50.554;7.032;2022-12-20T09:09:04;11.40;99.90
43015;DHT22;28637;50.554;7.032;2022-12-20T09:14:06;11.40;99.90
43015;DHT22;28637;50.554;7.032;2022-12-20T09:19:11;11.50;99.90
43015;DHT22;28637;50.554;7.032;2022-12-20T09:24:13;11.50;99.90
43015;DHT22;28637;50.554;7.032;2022-12-20T09:29:13;11.50;99.90
43015;DHT22;28637;50.554;7.032;2022-12-20T09:34:14;11.60;99.90
43015;DHT22;28637;50.554;7.032;2022-12-20T09:39:14;11.70;99.90
43015;DHT22;28637;50.554;7.032;2022-12-20T09:44:23;11.70;99.90
43015;DHT22;28637;50.554;7.032;2022-12-20T09:49:29;11.70;99.90
43015;DHT22;28637;50.554;7.032;2022-12-20T10:00:18;11.90;99.90
43015;DHT22;28637;50.554;7.032;2022-12-20T10:05:29;11.90;99.90
43015;DHT22;28637;50.554;7.032;2022-12-20T10:10:39;12.00;99.90
43015;DHT22;28637;50.554;7.032;2022-12-20T10:15:54;12.10;99.90
43015;DHT22;28637;50.554;7.032;2022-12-20T10:21:28;12.30;99.90
43015;DHT22;28637;50.554;7.032;2022-12-20T10:26:32;12.20;99.90
43015;DHT22;28637;50.554;7.032;2022-12-20T10:31:33;12.50;99.90
43015;DHT22;28637;50.554;7.032;2022-12-20T10:36:35;12.40;99.90
43015;DHT22;28637;50.554;7.032;2022-12-20T10:46:45;12.30;99.90
43015;DHT22;28637;50.554;7.032;2022-12-20T10:52:07;12.30;99.90
43015;DHT22;28637;50.554;7.032;2022-12-20T10:57:18;12.30;99.90
43015;DHT22;28637;50.554;7.032;2022-12-20T11:02:29;12.30;99.90
43015;DHT22;28637;50.554;7.032;2022-12-20T11:07:32;12.40;99.90
43015;DHT22;28637;50.554;7.032;2022-12-20T11:12:33;12.30;99.90
43015;DHT22;28637;50.554;7.032;2022-12-20T11:17:38;12.40;99.90
43015;DHT22;28637;50.554;7.032;2022-12-20T11:39:40;12.60;99.90
43015;DHT22;28637;50.554;7.032;2022-12-20T11:44:48;12.60;99.90
43015;DHT22;28637;50.554;7.032;2022-12-20T11:55:26;12.70;99.90
43015;DHT22;28637;50.554;7.032;2022-12-20T12:00:32;12.90;99.90
43015;DHT22;28637;50.554;7.032;2022-12-20T12:05:43;13.10;99.90
43015;DHT22;28637;50.554;7.032;2022-12-20T12:11:01;13.20;99.90
43015;DHT22;28637;50.554;7.032;2022-12-20T12:16:41;13.60;99.90
43015;DHT22;28637;50.554;7.032;2022-12-20T12:21:52;13.50;99.90
43015;DHT22;28637;50.554;7.032;2022-12-20T12:26:58;13.50;99.90
43015;DHT22;28637;50.554;7.032;2022-12-20T12:32:14;13.40;99.90
43015;DHT22;28637;50.554;7.032;2022-12-20T12:47:58;13.40;99.90
43015;DHT22;28637;50.554;7.032;2022-12-20T13:03:44;13.20;99.90
43015;DHT22;28637;50.554;7.032;2022-12-20T13:29:35;13.20;99.90
43015;DHT22;28637;50.554;7.032;2022-12-20T13:34:58;13.10;99.90
43015;DHT22;28637;50.554;7.032;2022-12-20T13:40:00;13.10;99.90
43015;DHT22;28637;50.554;7.032;2022-12-20T13:45:03;13.10;99.90
43015;DHT22;28637;50.554;7.032;2022-12-20T13:50:27;13.10;99.90
43015;DHT22;28637;50.554;7.032;2022-12-20T13:55:39;13.10;99.90
43015;DHT22;28637;50.554;7.032;2022-12-20T14:00:43;13.00;99.90
43015;DHT22;28637;50.554;7.032;2022-12-20T14:05:44;13.10;99.90
43015;DHT22;28637;50.554;7.032;2022-12-20T14:10:45;13.40;99.90
43015;DHT22;28637;50.554;7.032;2022-12-20T14:15:45;13.50;99.90
43015;DHT22;28637;50.554;7.032;2022-12-20T14:25:55;13.40;99.90
43015;DHT22;28637;50.554;7.032;2022-12-20T14:30:58;13.30;99.90
43015;DHT22;28637;50.554;7.032;2022-12-20T14:41:35;13.10;99.90
43015;DHT22;28637;50.554;7.032;2022-12-20T14:46:36;13.10;99.90
43015;DHT22;28637;50.554;7.032;2022-12-20T14:51:37;13.00;99.90
43015;DHT22;28637;50.554;7.032;2022-12-20T14:56:47;12.90;99.90
43015;DHT22;28637;50.554;7.032;2022-12-20T15:01:50;12.90;99.90
43015;DHT22;28637;50.554;7.032;2022-12-20T15:06:51;12.90;99.90
43015;DHT22;28637;50.554;7.032;2022-12-20T15:11:52;12.80;99.90
43015;DHT22;28637;50.554;7.032;2022-12-20T15:16:53;12.80;99.90
43015;DHT22;28637;50.554;7.032;2022-12-20T15:21:54;12.80;99.90
43015;DHT22;28637;50.554;7.032;2022-12-20T15:26:55;12.70;99.90
43015;DHT22;28637;50.554;7.032;2022-12-20T15:32:09;12.70;99.90
43015;DHT22;28637;50.554;7.032;2022-12-20T15:37:14;12.60;99.90
43015;DHT22;28637;50.554;7.032;2022-12-20T15:42:17;12.50;99.90
43015;DHT22;28637;50.554;7.032;2022-12-20T15:47:19;12.40;99.90
43015;DHT22;28637;50.554;7.032;2022-12-20T15:52:22;12.40;99.90
43015;DHT22;28637;50.554;7.032;2022-12-20T15:57:23;12.30;99.90
43015;DHT22;28637;50.554;7.032;2022-12-20T16:02:26;12.20;99.90
43015;DHT22;28637;50.554;7.032;2022-12-20T16:07:27;12.30;99.90
43015;DHT22;28637;50.554;7.032;2022-12-20T16:12:32;12.20;99.90
43015;DHT22;28637;50.554;7.032;2022-12-20T16:17:34;12.10;99.90
43015;DHT22;28637;50.554;7.032;2022-12-20T16:22:34;12.10;99.90
43015;DHT22;28637;50.554;7.032;2022-12-20T16:27:35;12.10;99.90
43015;DHT22;28637;50.554;7.032;2022-12-20T16:32:35;12.10;99.90
43015;DHT22;28637;50.554;7.032;2022-12-20T16:37:36;12.10;99.90
43015;DHT22;28637;50.554;7.032;2022-12-20T16:42:37;12.10;99.90
43015;DHT22;28637;50.554;7.032;2022-12-20T16:47:38;12.20;99.90
43015;DHT22;28637;50.554;7.032;2022-12-20T16:52:39;12.20;99.90
43015;DHT22;28637;50.554;7.032;2022-12-20T16:57:40;12.20;99.90
43015;DHT22;28637;50.554;7.032;2022-12-20T17:02:42;12.20;99.90
43015;DHT22;28637;50.554;7.032;2022-12-20T17:07:43;12.20;99.90
43015;DHT22;28637;50.554;7.032;2022-12-20T17:12:44;12.20;99.90
43015;DHT22;28637;50.554;7.032;2022-12-20T17:17:46;12.20;99.90
43015;DHT22;28637;50.554;7.032;2022-12-20T17:22:48;12.20;99.90
43015;DHT22;28637;50.554;7.032;2022-12-20T17:27:50;12.20;99.90
43015;DHT22;28637;50.554;7.032;2022-12-20T17:32:51;12.20;99.90
43015;DHT22;28637;50.554;7.032;2022-12-20T17:37:53;12.20;99.90
43015;DHT22;28637;50.554;7.032;2022-12-20T17:42:55;12.30;99.90
43015;DHT22;28637;50.554;7.032;2022-12-20T17:47:56;12.20;99.90
43015;DHT22;28637;50.554;7.032;2022-12-20T17:52:57;12.10;99.90
43015;DHT22;28637;50.554;7.032;2022-12-20T17:57:58;12.10;99.90
43015;DHT22;28637;50.554;7.032;2022-12-20T18:02:59;12.10;99.90
43015;DHT22;28637;50.554;7.032;2022-12-20T18:07:59;12.00;99.90
43015;DHT22;28637;50.554;7.032;2022-12-20T18:13:00;12.10;99.90
43015;DHT22;28637;50.554;7.032;2022-12-20T18:18:00;12.10;99.90
43015;DHT22;28637;50.554;7.032;2022-12-20T18:23:01;12.10;99.90
43015;DHT22;28637;50.554;7.032;2022-12-20T18:28:02;12.10;99.90
43015;DHT22;28637;50.554;7.032;2022-12-20T18:33:03;12.10;99.90
43015;DHT22;28637;50.554;7.032;2022-12-20T18:38:03;12.20;99.90
43015;DHT22;28637;50.554;7.032;2022-12-20T18:43:04;12.20;99.90
43015;DHT22;28637;50.554;7.032;2022-12-20T18:48:05;12.10;99.90
43015;DHT22;28637;50.554;7.032;2022-12-20T18:53:05;12.00;99.90
43015;DHT22;28637;50.554;7.032;2022-12-20T18:58:06;12.00;99.90
43015;DHT22;28637;50.554;7.032;2022-12-20T19:03:07;12.00;99.90
43015;DHT22;28637;50.554;7.032;2022-12-20T19:08:08;12.00;99.90
43015;DHT22;28637;50.554;7.032;2022-12-20T19:13:08;11.90;99.90
43015;DHT22;28637;50.554;7.032;2022-12-20T19:18:09;11.90;99.90
43015;DHT22;28637;50.554;7.032;2022-12-20T19:23:09;12.00;99.90
43015;DHT22;28637;50.554;7.032;2022-12-20T19:28:10;12.00;99.90
43015;DHT22;28637;50.554;7.032;2022-12-20T19:33:11;12.00;99.90
43015;DHT22;28637;50.554;7.032;2022-12-20T19:38:12;12.00;99.90
43015;DHT22;28637;50.554;7.032;2022-12-20T19:43:13;12.10;99.90
43015;DHT22;28637;50.554;7.032;2022-12-20T19:48:13;12.00;99.90
43015;DHT22;28637;50.554;7.032;2022-12-20T19:53:14;12.00;99.90
43015;DHT22;28637;50.554;7.032;2022-12-20T19:58:14;12.00;99.90
43015;DHT22;28637;50.554;7.032;2022-12-20T20:03:16;12.00;99.90
43015;DHT22;28637;50.554;7.032;2022-12-20T20:08:17;12.00;99.90
43015;DHT22;28637;50.554;7.032;2022-12-20T20:13:18;12.00;99.90
43015;DHT22;28637;50.554;7.032;2022-12-20T20:18:19;11.90;99.90
43015;DHT22;28637;50.554;7.032;2022-12-20T20:23:20;12.00;99.90
43015;DHT22;28637;50.554;7.032;2022-12-20T20:28:23;11.90;99.90
43015;DHT22;28637;50.554;7.032;2022-12-20T20:33:23;12.00;99.90
43015;DHT22;28637;50.554;7.032;2022-12-20T20:38:26;12.00;99.90
43015;DHT22;28637;50.554;7.032;2022-12-20T20:43:27;11.90;99.90
43015;DHT22;28637;50.554;7.032;2022-12-20T20:48:29;11.90;99.90
43015;DHT22;28637;50.554;7.032;2022-12-20T20:53:30;11.80;99.90
43015;DHT22;28637;50.554;7.032;2022-12-20T20:58:31;11.80;99.90
43015;DHT22;28637;50.554;7.032;2022-12-20T21:03:32;11.80;99.90
43015;DHT22;28637;50.554;7.032;2022-12-20T21:08:33;11.80;99.90
43015;DHT22;28637;50.554;7.032;2022-12-20T21:13:34;11.90;99.90
43015;DHT22;28637;50.554;7.032;2022-12-20T21:18:35;11.80;99.90
43015;DHT22;28637;50.554;7.032;2022-12-20T21:23:36;11.80;99.90
43015;DHT22;28637;50.554;7.032;2022-12-20T21:28:38;11.80;99.90
43015;DHT22;28637;50.554;7.032;2022-12-20T21:33:40;11.80;99.90
43015;DHT22;28637;50.554;7.032;2022-12-20T21:38:45;11.80;99.90
43015;DHT22;28637;50.554;7.032;2022-12-20T21:43:46;11.80;99.90
43015;DHT22;28637;50.554;7.032;2022-12-20T21:48:46;11.80;99.90
43015;DHT22;28637;50.554;7.032;2022-12-20T21:53:49;11.80;99.90
43015;DHT22;28637;50.554;7.032;2022-12-20T21:58:50;11.70;99.90
43015;DHT22;28637;50.554;7.032;2022-12-20T22:03:53;11.70;99.90
43015;DHT22;28637;50.554;7.032;2022-12-20T22:08:58;11.70;99.90
43015;DHT22;28637;50.554;7.032;2022-12-20T22:13:59;11.80;99.90
43015;DHT22;28637;50.554;7.032;2022-12-20T22:19:00;11.70;99.90
43015;DHT22;28637;50.554;7.032;2022-12-20T22:24:01;11.80;99.90
43015;DHT22;28637;50.554;7.032;2022-12-20T22:29:04;11.80;99.90
43015;DHT22;28637;50.554;7.032;2022-12-20T22:34:05;11.80;99.90
43015;DHT22;28637;50.554;7.032;2022-12-20T22:39:06;11.80;99.90
43015;DHT22;28637;50.554;7.032;2022-12-20T22:44:08;11.80;99.90
43015;DHT22;28637;50.554;7.032;2022-12-20T22:49:15;11.80;99.90
43015;DHT22;28637;50.554;7.032;2022-12-20T22:54:16;11.70;99.90
43015;DHT22;28637;50.554;7.032;2022-12-20T22:59:17;11.70;99.90
43015;DHT22;28637;50.554;7.032;2022-12-20T23:04:17;11.60;99.90
43015;DHT22;28637;50.554;7.032;2022-12-20T23:09:18;11.60;99.90
43015;DHT22;28637;50.554;7.032;2022-12-20T23:14:21;11.50;99.90
43015;DHT22;28637;50.554;7.032;2022-12-20T23:19:40;11.50;99.90
43015;DHT22;28637;50.554;7.032;2022-12-20T23:24:59;11.40;99.90
43015;DHT22;28637;50.554;7.032;2022-12-20T23:30:05;11.50;99.90
43015;DHT22;28637;50.554;7.032;2022-12-20T23:35:08;11.50;99.90
43015;DHT22;28637;50.554;7.032;2022-12-20T23:40:09;11.40;99.90
43015;DHT22;28637;50.554;7.032;2022-12-20T23:45:10;11.40;99.90
43015;DHT22;28637;50.554;7.032;2022-12-20T23:50:11;11.40;99.90
43015;DHT22;28637;50.554;7.032;2022-12-20T23:55:12;11.40;99.90
